Time;durP1;ratioP1;P1;durP2;ratioP2;P2;SDS_P1;SDS_P2;PMS_P1;PMS_P2;Temp;Humidity;BMP_temperature;BMP_pressure;BME280_temperature;BME280_humidity;BME280_pressure;Samples;Min_cycle;Max_cycle;Signal;HPM_P1;HPM_P2
2023/07/10 00:01:30;;;;;;;17.95;7.13;;;19.10;99.90;;;;;;5048928;28;20491;-83
2023/07/10 00:03:55;;;;;;;17.02;7.47;;;19.00;99.90;;;;;;5047951;28;20048;-83
2023/07/10 00:06:21;;;;;;;17.42;7.50;;;19.00;99.90;;;;;;5029857;28;20048;-83
2023/07/10 00:08:47;;;;;;;12.18;7.55;;;19.00;99.90;;;;;;5031777;28;20048;-84
2023/07/10 00:11:17;;;;;;;13.52;7.38;;;19.00;99.90;;;;;;5067393;28;20524;-82
2023/07/10 00:13:44;;;;;;;20.42;8.77;;;19.00;99.90;;;;;;5050816;28;20040;-82
2023/07/10 00:16:18;;;;;;;11.13;7.28;;;19.00;99.90;;;;;;5048375;28;20507;-83
2023/07/10 00:18:44;;;;;;;16.83;7.70;;;19.00;99.90;;;;;;5048436;28;20574;-83
2023/07/10 00:21:17;;;;;;;17.95;7.35;;;19.00;99.90;;;;;;5034240;28;20063;-83
2023/07/10 00:23:44;;;;;;;15.98;7.45;;;19.00;99.90;;;;;;5034386;28;20186;-83
2023/07/10 00:26:24;;;;;;;18.90;7.60;;;19.00;99.90;;;;;;5069384;28;20075;-83
2023/07/10 00:28:53;;;;;;;21.70;8.48;;;19.00;99.90;;;;;;5047864;28;20086;-83
2023/07/10 00:31:19;;;;;;;13.98;7.43;;;19.00;99.90;;;;;;5047279;28;20128;-83
2023/07/10 00:33:47;;;;;;;13.95;7.80;;;19.00;99.90;;;;;;5031371;28;20075;-84
2023/07/10 00:36:38;;;;;;;13.60;8.38;;;19.00;99.90;;;;;;5031208;28;20048;-84
2023/07/10 00:39:23;;;;;;;14.00;7.82;;;19.00;99.90;;;;;;5048649;28;20294;-84
2023/07/10 00:42:18;;;;;;;15.15;7.63;;;19.00;99.90;;;;;;5068586;28;20055;-83
2023/07/10 00:44:53;;;;;;;21.27;10.05;;;19.00;99.90;;;;;;5044889;28;20068;-83
2023/07/10 00:47:48;;;;;;;18.05;10.02;;;19.00;99.90;;;;;;5047156;28;20049;-81
2023/07/10 00:50:21;;;;;;;16.70;10.98;;;19.00;99.90;;;;;;5046348;28;20048;-83
2023/07/10 00:52:49;;;;;;;21.15;12.23;;;18.90;99.90;;;;;;5065157;28;20081;-83
2023/07/10 00:55:37;;;;;;;24.40;13.27;;;18.90;99.90;;;;;;5046807;28;20052;-83
2023/07/10 00:58:21;;;;;;;24.20;15.68;;;18.90;99.90;;;;;;5046774;28;20488;-83
2023/07/10 01:01:02;;;;;;;26.48;15.38;;;18.90;99.90;;;;;;5064839;28;20049;-83
2023/07/10 01:03:29;;;;;;;31.95;17.27;;;18.90;99.90;;;;;;5047113;28;20052;-83
2023/07/10 01:05:57;;;;;;;27.15;14.65;;;18.80;99.90;;;;;;5046294;28;20052;-83
2023/07/10 01:08:23;;;;;;;26.80;16.42;;;18.80;99.90;;;;;;5046614;28;20090;-82
2023/07/10 01:10:50;;;;;;;25.48;16.58;;;18.80;99.90;;;;;;5064713;28;20045;-83
2023/07/10 01:13:16;;;;;;;28.35;16.35;;;18.80;99.90;;;;;;5065296;28;20049;-82
2023/07/10 01:15:42;;;;;;;29.67;16.35;;;18.80;99.90;;;;;;5029898;28;20088;-83
2023/07/10 01:18:11;;;;;;;31.92;16.88;;;18.80;99.90;;;;;;5066593;28;20072;-83
2023/07/10 01:20:46;;;;;;;24.08;16.48;;;18.80;99.90;;;;;;5068752;28;20372;-82
2023/07/10 01:23:12;;;;;;;30.23;17.08;;;18.70;99.90;;;;;;5067918;28;20049;-81
2023/07/10 01:25:44;;;;;;;23.50;14.98;;;18.70;99.90;;;;;;5068658;28;20045;-82
2023/07/10 01:28:15;;;;;;;28.23;14.68;;;18.70;99.90;;;;;;5067560;28;20056;-85
2023/07/10 01:30:43;;;;;;;21.77;13.63;;;18.60;99.90;;;;;;5050546;28;20051;-81
2023/07/10 01:33:33;;;;;;;23.83;13.30;;;18.60;99.90;;;;;;5067921;28;20040;-83
2023/07/10 01:36:00;;;;;;;20.48;14.50;;;18.50;99.90;;;;;;5067844;28;20120;-83
2023/07/10 01:38:34;;;;;;;21.73;12.90;;;18.50;99.90;;;;;;5033249;28;20056;-83
2023/07/10 01:41:04;;;;;;;26.67;13.55;;;18.50;99.90;;;;;;5049202;28;20052;-81
2023/07/10 01:43:29;;;;;;;19.60;13.18;;;18.50;99.90;;;;;;5049545;28;20048;-82
2023/07/10 01:45:55;;;;;;;28.58;13.57;;;18.50;99.90;;;;;;5050049;28;20055;-82
2023/07/10 01:48:27;;;;;;;18.67;12.77;;;18.40;99.90;;;;;;5032789;28;20519;-83
2023/07/10 01:50:52;;;;;;;16.40;11.95;;;18.40;99.90;;;;;;5032948;28;20055;-83
2023/07/10 01:53:18;;;;;;;23.05;12.73;;;18.40;99.90;;;;;;5032918;28;20115;-82
2023/07/10 01:55:45;;;;;;;22.25;13.30;;;18.40;99.90;;;;;;5016491;28;20402;-83
2023/07/10 01:58:12;;;;;;;20.13;12.95;;;18.30;99.90;;;;;;5049221;28;20044;-83
2023/07/10 02:00:40;;;;;;;20.55;13.18;;;18.40;99.90;;;;;;5049296;28;20459;-83
2023/07/10 02:03:06;;;;;;;22.48;13.40;;;18.40;99.90;;;;;;5032997;28;20541;-82
2023/07/10 02:05:32;;;;;;;20.63;12.93;;;18.30;99.90;;;;;;5067234;28;20554;-82
2023/07/10 02:07:58;;;;;;;20.17;13.45;;;18.30;99.90;;;;;;5049870;28;20366;-82
2023/07/10 02:10:24;;;;;;;24.52;13.35;;;18.30;99.90;;;;;;5048813;28;20056;-82
2023/07/10 02:12:50;;;;;;;23.35;13.57;;;18.30;99.90;;;;;;5032597;28;20056;-82
2023/07/10 02:15:15;;;;;;;27.35;14.65;;;18.30;99.90;;;;;;5066737;28;20068;-82
2023/07/10 02:17:41;;;;;;;24.65;12.73;;;18.20;99.90;;;;;;5016092;28;20076;-82
2023/07/10 02:20:07;;;;;;;25.92;14.13;;;18.20;99.90;;;;;;5048975;28;20044;-82
2023/07/10 02:22:33;;;;;;;17.77;12.65;;;18.20;99.90;;;;;;5048908;28;20131;-82
2023/07/10 02:24:59;;;;;;;19.05;13.15;;;18.20;99.90;;;;;;5067294;28;20132;-82
2023/07/10 02:27:24;;;;;;;21.38;12.45;;;18.20;99.90;;;;;;5032370;28;20033;-82
2023/07/10 02:29:50;;;;;;;22.20;13.73;;;18.10;99.90;;;;;;5031668;28;20135;-81
2023/07/10 02:32:16;;;;;;;22.15;13.52;;;18.10;99.90;;;;;;5048398;28;20082;-81
2023/07/10 02:34:41;;;;;;;20.50;13.30;;;18.10;99.90;;;;;;5048755;28;20033;-81
2023/07/10 02:37:07;;;;;;;17.50;12.82;;;18.10;99.90;;;;;;5048169;28;20053;-82
2023/07/10 02:39:33;;;;;;;18.55;11.82;;;18.10;99.90;;;;;;5032399;28;20047;-81
2023/07/10 02:41:58;;;;;;;22.85;11.93;;;18.10;99.90;;;;;;5048757;28;20449;-81
2023/07/10 02:44:24;;;;;;;18.15;12.63;;;18.20;99.90;;;;;;5032465;28;20374;-82
2023/07/10 02:46:50;;;;;;;18.67;11.90;;;18.10;99.90;;;;;;5048770;28;20094;-81
2023/07/10 02:49:15;;;;;;;20.40;10.63;;;18.10;99.90;;;;;;5047872;28;20052;-81
2023/07/10 02:51:41;;;;;;;16.90;10.63;;;18.10;99.90;;;;;;5066683;28;20421;-82
2023/07/10 02:54:13;;;;;;;14.70;10.38;;;18.10;99.90;;;;;;5048334;28;20520;-81
2023/07/10 02:56:39;;;;;;;16.90;9.73;;;18.10;99.90;;;;;;5031697;28;20041;-81
2023/07/10 02:59:05;;;;;;;14.85;10.77;;;18.10;99.90;;;;;;5048548;28;20055;-82
2023/07/10 03:01:30;;;;;;;14.00;9.73;;;18.10;99.90;;;;;;5066294;28;20150;-82
2023/07/10 03:03:56;;;;;;;12.48;9.55;;;18.10;99.90;;;;;;5048349;28;20037;-81
2023/07/10 03:06:23;;;;;;;16.33;8.30;;;18.10;99.90;;;;;;5030985;28;20043;-82
2023/07/10 03:08:50;;;;;;;14.23;9.38;;;18.10;99.90;;;;;;5048488;28;20060;-82
2023/07/10 03:11:16;;;;;;;12.43;8.45;;;18.10;99.90;;;;;;5048004;28;20114;-81
2023/07/10 03:13:42;;;;;;;13.07;9.02;;;18.10;99.90;;;;;;5031715;28;20151;-81
2023/07/10 03:16:14;;;;;;;17.33;9.63;;;18.10;99.90;;;;;;5048329;28;20049;-82
2023/07/10 03:18:40;;;;;;;14.52;8.57;;;18.90;99.90;;;;;;5047762;28;20059;-82
2023/07/10 03:21:07;;;;;;;15.50;8.45;;;18.10;99.90;;;;;;5048002;28;20037;-82
2023/07/10 03:23:33;;;;;;;14.00;9.25;;;18.10;99.90;;;;;;5030752;28;20487;-82
2023/07/10 03:25:59;;;;;;;12.35;9.15;;;18.10;99.90;;;;;;5047566;28;20044;-82
2023/07/10 03:28:25;;;;;;;16.83;8.68;;;18.10;99.90;;;;;;5031308;28;20059;-82
2023/07/10 03:30:50;;;;;;;11.73;8.13;;;18.10;99.90;;;;;;5066246;28;20089;-82
2023/07/10 03:33:17;;;;;;;14.00;7.78;;;18.10;99.90;;;;;;5066418;28;20499;-81
2023/07/10 03:35:48;;;;;;;12.65;7.53;;;18.00;99.90;;;;;;5048051;28;20052;-81
2023/07/10 03:38:15;;;;;;;10.27;7.50;;;18.00;99.90;;;;;;5047990;28;20048;-81
2023/07/10 03:40:52;;;;;;;10.63;7.60;;;18.00;99.90;;;;;;5065401;28;20137;-82
2023/07/10 03:43:18;;;;;;;11.68;7.50;;;18.00;99.90;;;;;;5032402;28;20045;-82
2023/07/10 03:45:44;;;;;;;11.40;6.97;;;16.60;99.90;;;;;;5015425;28;20095;-82
2023/07/10 03:48:10;;;;;;;10.68;7.03;;;18.10;99.90;;;;;;5031525;28;20515;-82
2023/07/10 03:50:35;;;;;;;9.23;6.13;;;18.10;99.90;;;;;;5066529;28;20048;-82
2023/07/10 03:53:01;;;;;;;9.98;6.07;;;18.10;99.90;;;;;;5032037;28;20058;-82
2023/07/10 03:55:27;;;;;;;12.68;7.25;;;18.10;99.90;;;;;;5066683;28;20040;-82
2023/07/10 03:57:53;;;;;;;12.27;6.35;;;18.10;99.90;;;;;;5047513;28;20123;-84
2023/07/10 04:00:19;;;;;;;12.27;7.10;;;18.10;99.90;;;;;;5047966;28;20057;-83
2023/07/10 04:02:45;;;;;;;9.60;5.93;;;16.10;99.90;;;;;;5047783;28;20068;-82
2023/07/10 04:05:11;;;;;;;10.65;6.65;;;18.10;99.90;;;;;;5065769;28;20475;-83
2023/07/10 04:07:36;;;;;;;10.75;6.65;;;18.10;99.90;;;;;;5031072;28;20567;-83
2023/07/10 04:10:03;;;;;;;10.10;7.00;;;18.10;99.90;;;;;;5065006;28;20131;-82
2023/07/10 04:12:28;;;;;;;13.18;7.13;;;18.10;99.90;;;;;;5014549;28;20048;-84
2023/07/10 04:14:54;;;;;;;11.50;7.40;;;18.10;99.90;;;;;;5046944;28;20055;-82
2023/07/10 04:17:20;;;;;;;13.57;6.85;;;18.10;99.90;;;;;;5047606;28;20048;-84
2023/07/10 04:19:46;;;;;;;10.55;8.07;;;18.10;99.90;;;;;;5066567;28;20055;-86
2023/07/10 04:22:12;;;;;;;11.65;7.13;;;18.10;99.90;;;;;;5031010;28;20132;-83
2023/07/10 04:24:37;;;;;;;16.42;7.10;;;18.20;99.90;;;;;;5065122;28;20051;-84
2023/07/10 04:27:03;;;;;;;9.98;6.45;;;18.20;99.90;;;;;;5048085;28;20448;-84
2023/07/10 04:29:29;;;;;;;9.10;6.15;;;19.30;99.90;;;;;;5031044;28;20048;-84
2023/07/10 04:31:55;;;;;;;7.90;5.97;;;18.10;99.90;;;;;;5013535;28;20527;-83
2023/07/10 04:34:21;;;;;;;9.10;5.93;;;18.20;99.90;;;;;;5031234;28;20066;-83
2023/07/10 04:36:46;;;;;;;8.68;5.97;;;18.20;99.90;;;;;;5030176;28;20052;-84
2023/07/10 04:39:12;;;;;;;8.90;4.95;;;17.90;99.90;;;;;;5047397;28;20616;-83
2023/07/10 04:41:38;;;;;;;8.98;5.47;;;17.80;99.90;;;;;;5030918;28;20044;-83
2023/07/10 04:44:05;;;;;;;7.20;4.82;;;18.30;99.90;;;;;;5065423;28;20053;-82
2023/07/10 04:46:30;;;;;;;5.85;4.72;;;18.40;99.90;;;;;;5031543;28;20102;-81
2023/07/10 04:48:56;;;;;;;5.68;3.70;;;18.40;99.90;;;;;;5030547;28;20056;-81
2023/07/10 04:51:22;;;;;;;6.70;3.58;;;18.40;99.90;;;;;;5030677;28;20080;-81
2023/07/10 04:53:48;;;;;;;7.53;3.85;;;18.50;99.90;;;;;;5050297;28;20047;-84
2023/07/10 04:56:16;;;;;;;7.13;3.83;;;18.30;99.90;;;;;;5050866;28;20056;-84
2023/07/10 04:58:59;;;;;;;4.13;2.85;;;18.40;99.90;;;;;;5051331;28;20446;-83
2023/07/10 05:01:28;;;;;;;6.20;2.90;;;18.40;99.90;;;;;;5050950;28;20056;-83
2023/07/10 05:03:55;;;;;;;4.80;2.97;;;18.40;99.90;;;;;;5051063;28;20094;-84
2023/07/10 05:06:21;;;;;;;5.57;3.58;;;18.40;99.90;;;;;;5033898;28;20105;-83
2023/07/10 05:08:47;;;;;;;6.32;3.38;;;18.40;99.90;;;;;;5033696;28;20495;-84
2023/07/10 05:11:14;;;;;;;11.02;4.45;;;18.30;99.90;;;;;;5050176;28;20056;-83
2023/07/10 05:13:40;;;;;;;7.95;4.05;;;18.30;99.90;;;;;;5068114;28;20122;-84
2023/07/10 05:16:06;;;;;;;7.15;3.88;;;18.30;99.90;;;;;;5068762;28;20056;-84
2023/07/10 05:18:31;;;;;;;7.20;3.83;;;18.30;99.90;;;;;;5050834;28;20428;-82
2023/07/10 05:20:58;;;;;;;6.50;4.45;;;18.30;99.90;;;;;;5068739;28;20190;-83
2023/07/10 05:23:24;;;;;;;7.35;3.72;;;18.40;99.90;;;;;;5050100;28;20403;-81
2023/07/10 05:26:04;;;;;;;6.10;3.83;;;18.40;99.90;;;;;;5049890;28;20053;-82
2023/07/10 05:28:30;;;;;;;5.82;3.70;;;18.50;99.90;;;;;;5067642;28;20101;-82
2023/07/10 05:31:00;;;;;;;7.18;4.07;;;18.50;99.90;;;;;;5067874;28;20515;-84
2023/07/10 05:33:28;;;;;;;16.27;10.38;;;18.60;99.90;;;;;;5050330;28;20049;-84
2023/07/10 05:35:56;;;;;;;8.43;4.63;;;18.70;99.90;;;;;;5032972;28;20062;-85
2023/07/10 05:38:24;;;;;;;5.82;3.28;;;18.70;99.90;;;;;;5050056;28;20048;-86
2023/07/10 05:40:50;;;;;;;7.30;3.85;;;18.90;99.90;;;;;;5067580;28;20056;-85
2023/07/10 05:43:16;;;;;;;8.90;4.25;;;18.90;99.90;;;;;;5033487;28;20048;-85
2023/07/10 05:45:42;;;;;;;9.27;3.78;;;19.00;99.90;;;;;;5051235;28;20041;-86
2023/07/10 05:48:08;;;;;;;8.15;3.90;;;19.10;99.90;;;;;;5050184;28;20056;-85
2023/07/10 05:50:34;;;;;;;6.80;3.70;;;18.80;99.90;;;;;;5051861;28;20054;-84
2023/07/10 05:53:00;;;;;;;6.72;3.90;;;19.30;99.90;;;;;;5033785;28;20143;-86
2023/07/10 05:55:25;;;;;;;7.15;3.58;;;19.30;99.90;;;;;;5017056;28;20071;-85
2023/07/10 05:57:51;;;;;;;3.47;2.65;;;19.40;99.90;;;;;;5049628;28;20041;-86
2023/07/10 06:00:17;;;;;;;4.93;2.97;;;20.50;99.90;;;;;;5067821;28;20037;-85
2023/07/10 06:02:42;;;;;;;5.85;3.08;;;19.40;99.90;;;;;;5049581;28;20448;-86
2023/07/10 06:05:08;;;;;;;6.07;2.53;;;19.40;99.90;;;;;;5047931;28;20090;-86
2023/07/10 06:07:34;;;;;;;5.32;2.22;;;19.50;99.90;;;;;;5049585;28;20515;-85
2023/07/10 06:10:00;;;;;;;6.60;2.47;;;19.50;99.90;;;;;;5032445;28;20055;-84
2023/07/10 06:12:29;;;;;;;4.22;2.42;;;19.50;99.90;;;;;;5033639;28;20102;-83
2023/07/10 06:14:55;;;;;;;3.75;2.25;;;19.50;99.90;;;;;;5032652;28;20098;-84
2023/07/10 06:17:20;;;;;;;7.35;2.83;;;19.50;99.90;;;;;;5049637;28;20455;-85
2023/07/10 06:19:46;;;;;;;4.97;2.38;;;19.60;99.90;;;;;;5032545;28;20059;-85
2023/07/10 06:22:12;;;;;;;10.10;2.90;;;19.60;99.90;;;;;;5049514;28;20036;-85
2023/07/10 06:24:39;;;;;;;7.55;2.70;;;19.60;99.90;;;;;;5049142;28;20048;-84
2023/07/10 06:27:06;;;;;;;6.93;2.50;;;19.70;99.90;;;;;;5032836;28;20496;-84
2023/07/10 06:29:36;;;;;;;5.72;3.03;;;19.70;99.90;;;;;;5049654;28;20391;-84
2023/07/10 06:32:02;;;;;;;6.32;2.08;;;19.80;99.90;;;;;;5048926;28;20427;-84
2023/07/10 06:34:29;;;;;;;4.07;1.75;;;19.80;99.90;;;;;;5016047;28;20088;-85
2023/07/10 06:36:55;;;;;;;4.75;2.28;;;19.70;99.90;;;;;;5066053;28;20491;-83
2023/07/10 06:39:21;;;;;;;6.60;2.00;;;19.70;99.90;;;;;;5066262;28;20075;-83
2023/07/10 06:41:46;;;;;;;4.60;2.20;;;19.70;99.90;;;;;;5032875;28;20064;-83
2023/07/10 06:44:12;;;;;;;6.47;2.47;;;18.10;99.90;;;;;;5066636;28;20381;-83
2023/07/10 06:46:38;;;;;;;5.38;2.65;;;19.60;99.90;;;;;;5067118;28;20124;-81
2023/07/10 06:49:03;;;;;;;4.78;2.20;;;19.60;99.90;;;;;;5066326;28;20090;-81
2023/07/10 06:51:29;;;;;;;4.30;2.10;;;19.70;99.90;;;;;;5049117;28;20044;-81
2023/07/10 06:53:55;;;;;;;4.07;1.92;;;19.80;99.90;;;;;;5032075;28;20050;-83
2023/07/10 06:56:21;;;;;;;7.05;1.70;;;19.90;99.90;;;;;;5066580;28;20048;-83
2023/07/10 06:58:47;;;;;;;14.70;7.55;;;20.00;99.90;;;;;;5015457;28;20442;-82
2023/07/10 07:01:12;;;;;;;6.40;2.30;;;20.00;99.90;;;;;;5065908;28;20051;-83
2023/07/10 07:03:40;;;;;;;4.40;2.17;;;20.10;99.90;;;;;;5048982;28;20040;-84
2023/07/10 07:06:07;;;;;;;2.60;1.70;;;19.30;99.90;;;;;;5066407;28;20083;-83
2023/07/10 07:08:33;;;;;;;5.10;2.10;;;20.30;99.90;;;;;;5048524;28;20048;-83
2023/07/10 07:10:59;;;;;;;7.78;2.05;;;20.30;99.90;;;;;;5047629;28;20123;-85
2023/07/10 07:13:25;;;;;;;10.32;1.92;;;20.40;99.90;;;;;;5031743;28;20123;-81
2023/07/10 07:15:55;;;;;;;6.32;2.10;;;20.50;99.90;;;;;;5065456;28;20044;-80
2023/07/10 07:18:22;;;;;;;6.40;1.45;;;20.60;99.90;;;;;;5047649;28;20048;-82
2023/07/10 07:20:48;;;;;;;5.90;1.95;;;20.70;99.90;;;;;;5066422;28;20043;-82
2023/07/10 07:23:14;;;;;;;6.30;1.67;;;20.80;99.90;;;;;;5031338;28;20051;-82
2023/07/10 07:25:43;;;;;;;6.07;1.75;;;20.90;99.90;;;;;;5031717;28;20508;-81
2023/07/10 07:28:10;;;;;;;4.32;1.35;;;21.00;99.90;;;;;;5065695;28;20396;-82
2023/07/10 07:30:36;;;;;;;5.75;1.52;;;21.10;99.90;;;;;;5065941;28;20048;-82
2023/07/10 07:33:02;;;;;;;5.13;1.20;;;21.20;99.90;;;;;;5031952;28;20547;-82
2023/07/10 07:35:28;;;;;;;6.07;1.90;;;21.30;99.90;;;;;;5052659;28;20554;-82
2023/07/10 07:37:54;;;;;;;6.07;1.25;;;21.30;99.90;;;;;;5038749;28;20053;-83
2023/07/10 07:40:23;;;;;;;5.93;1.70;;;21.40;99.90;;;;;;5054860;28;20082;-82
2023/07/10 07:42:48;;;;;;;2.63;1.20;;;21.40;99.90;;;;;;5039358;28;20055;-82
2023/07/10 07:45:15;;;;;;;7.30;1.38;;;21.40;99.90;;;;;;5037806;28;20072;-83
2023/07/10 07:47:41;;;;;;;3.67;1.70;;;21.50;99.90;;;;;;5049982;28;20044;-83
2023/07/10 07:50:10;;;;;;;4.35;1.50;;;21.60;99.90;;;;;;5016187;28;20055;-83
2023/07/10 07:52:36;;;;;;;6.07;1.33;;;21.70;99.90;;;;;;5047548;28;20400;-84
2023/07/10 07:55:08;;;;;;;8.13;1.63;;;21.80;99.90;;;;;;5047913;28;20051;-82
2023/07/10 07:57:35;;;;;;;6.90;1.48;;;21.90;99.90;;;;;;5046085;28;20049;-83
2023/07/10 08:00:01;;;;;;;9.65;1.50;;;21.90;99.90;;;;;;5046517;28;20049;-84
2023/07/10 08:02:26;;;;;;;3.78;1.40;;;21.90;99.90;;;;;;5046473;28;20088;-83
2023/07/10 08:04:52;;;;;;;5.28;1.95;;;22.00;99.90;;;;;;5046182;28;20079;-84
2023/07/10 08:07:18;;;;;;;8.88;1.70;;;22.00;99.90;;;;;;5029879;28;20048;-83
2023/07/10 08:09:44;;;;;;;4.63;1.38;;;22.20;99.90;;;;;;5029489;28;20057;-84
2023/07/10 08:12:09;;;;;;;6.35;1.85;;;22.40;99.90;;;;;;5030124;28;20062;-84
2023/07/10 08:14:36;;;;;;;6.28;1.30;;;22.50;99.90;;;;;;5046163;28;20041;-84
2023/07/10 08:17:02;;;;;;;9.45;1.70;;;22.60;99.90;;;;;;5046665;28;20045;-84
2023/07/10 08:19:28;;;;;;;5.40;1.50;;;22.60;99.90;;;;;;5029696;28;20044;-83
2023/07/10 08:21:57;;;;;;;7.18;1.38;;;22.60;99.90;;;;;;5046022;28;20056;-83
2023/07/10 08:24:24;;;;;;;4.90;1.42;;;22.60;99.90;;;;;;5046619;28;20426;-84
2023/07/10 08:26:50;;;;;;;4.30;1.00;;;22.70;99.90;;;;;;5045316;28;20052;-85
2023/07/10 08:29:27;;;;;;;4.18;1.23;;;22.60;99.90;;;;;;5033977;28;20049;-82
2023/07/10 08:31:55;;;;;;;5.63;1.15;;;22.70;99.90;;;;;;5067892;28;20675;-85
2023/07/10 08:34:22;;;;;;;5.25;1.23;;;22.80;99.90;;;;;;5049659;28;20119;-85
2023/07/10 08:36:48;;;;;;;3.95;1.10;;;22.80;99.90;;;;;;5049485;28;20107;-86
2023/07/10 08:39:15;;;;;;;4.28;1.40;;;22.90;99.90;;;;;;5049378;28;20036;-84
2023/07/10 08:41:41;;;;;;;4.40;1.20;;;22.90;99.90;;;;;;5034065;28;20068;-85
2023/07/10 08:44:10;;;;;;;7.20;1.63;;;23.10;99.90;;;;;;5049713;28;20075;-85
2023/07/10 08:46:36;;;;;;;5.18;1.65;;;23.20;99.90;;;;;;5050186;28;20087;-85
2023/07/10 08:49:33;;;;;;;3.90;1.30;;;23.10;99.90;;;;;;5067515;28;20072;-85
2023/07/10 08:52:13;;;;;;;5.90;1.90;;;23.20;99.90;;;;;;5049723;28;20517;-86
2023/07/10 08:54:39;;;;;;;4.10;1.35;;;23.40;99.90;;;;;;5050216;28;20102;-86
2023/07/10 08:57:37;;;;;;;3.72;1.10;;;23.40;99.90;;;;;;5048994;28;20040;-85
2023/07/10 09:00:10;;;;;;;7.07;1.55;;;23.50;99.90;;;;;;5018453;28;20060;-85
2023/07/10 09:02:48;;;;;;;6.70;1.10;;;23.50;99.90;;;;;;5050086;28;20044;-84
2023/07/10 09:05:24;;;;;;;2.75;1.10;;;23.80;99.90;;;;;;5048924;28;20383;-86
2023/07/10 09:07:50;;;;;;;7.32;1.40;;;23.90;99.90;;;;;;5049984;28;20127;-86
2023/07/10 09:10:21;;;;;;;15.02;3.05;;;23.90;99.90;;;;;;5049326;28;20559;-86
2023/07/10 09:12:56;;;;;;;6.25;1.85;;;24.00;99.90;;;;;;5049353;28;20131;-85
2023/07/10 09:15:36;;;;;;;5.28;1.60;;;24.00;99.90;;;;;;5032669;28;20044;-86
2023/07/10 09:18:14;;;;;;;4.70;1.27;;;24.00;99.90;;;;;;5032696;28;20048;-85
2023/07/10 09:20:41;;;;;;;7.82;1.35;;;24.20;99.90;;;;;;5050105;28;20063;-86
2023/07/10 09:23:28;;;;;;;5.13;1.35;;;24.20;99.90;;;;;;5049288;28;20041;-86
2023/07/10 09:26:08;;;;;;;4.50;1.10;;;24.10;99.90;;;;;;5032266;28;20484;-85
2023/07/10 09:28:35;;;;;;;5.22;1.27;;;24.20;99.90;;;;;;5049249;28;20059;-86
2023/07/10 09:31:06;;;;;;;6.75;1.20;;;24.30;99.90;;;;;;5048618;28;20082;-86
2023/07/10 09:33:43;;;;;;;5.45;1.13;;;24.40;99.90;;;;;;5033370;28;20045;-86
2023/07/10 09:36:19;;;;;;;6.13;2.00;;;24.60;99.90;;;;;;5048659;28;20060;-85
2023/07/10 09:38:47;;;;;;;3.58;1.27;;;24.70;99.90;;;;;;5048854;28;20063;-84
2023/07/10 09:41:36;;;;;;;5.53;1.40;;;24.70;99.90;;;;;;5049274;28;20455;-86
2023/07/10 09:44:18;;;;;;;6.38;1.60;;;24.70;99.90;;;;;;5048173;28;20087;-84
2023/07/10 09:46:44;;;;;;;2.97;0.90;;;24.60;99.90;;;;;;5048858;28;20041;-85
2023/07/10 09:49:22;;;;;;;4.55;1.52;;;25.00;99.90;;;;;;5048219;28;20135;-85
2023/07/10 09:51:57;;;;;;;8.52;1.50;;;24.90;99.90;;;;;;5048729;28;20060;-85
2023/07/10 09:54:24;;;;;;;2.88;1.00;;;24.70;99.90;;;;;;5048622;28;20684;-85
2023/07/10 09:56:53;;;;;;;7.47;1.40;;;24.50;99.90;;;;;;5047483;28;20487;-85
2023/07/10 09:59:20;;;;;;;3.88;1.35;;;24.30;99.90;;;;;;5048796;28;20109;-85
2023/07/10 10:01:50;;;;;;;6.55;1.88;;;24.40;99.90;;;;;;5048024;28;20047;-84
2023/07/10 10:04:29;;;;;;;5.32;1.15;;;24.60;99.90;;;;;;5048538;28;20414;-85
2023/07/10 10:07:04;;;;;;;6.55;1.40;;;24.80;99.90;;;;;;5032011;28;20152;-83
2023/07/10 10:09:31;;;;;;;6.45;1.85;;;24.70;99.90;;;;;;5047604;28;20527;-87
2023/07/10 10:12:31;;;;;;;6.80;1.55;;;24.70;99.90;;;;;;5048819;28;20048;-88
2023/07/10 10:15:02;;;;;;;8.38;1.73;;;24.70;99.90;;;;;;5006022;28;20095;-88
2023/07/10 10:17:31;;;;;;;10.73;2.25;;;24.70;99.90;;;;;;5048440;28;20041;-88
2023/07/10 10:20:14;;;;;;;6.85;1.85;;;24.50;99.90;;;;;;5048331;28;20123;-88
2023/07/10 10:22:40;;;;;;;;;;;24.50;99.90;;;;;;5048729;28;20419;-91
2023/07/10 10:25:15;;;;;;;7.15;1.80;;;24.40;99.90;;;;;;5049103;28;20395;-86
2023/07/10 10:28:01;;;;;;;6.93;1.67;;;24.40;99.90;;;;;;5031664;28;20451;-88
2023/07/10 10:30:48;;;;;;;8.35;1.58;;;24.30;99.90;;;;;;5048038;28;20079;-87
2023/07/10 10:33:39;;;;;;;8.23;1.90;;;24.30;99.90;;;;;;5048374;28;20110;-85
2023/07/10 10:36:19;;;;;;;6.03;1.50;;;24.30;99.90;;;;;;5047845;28;20423;-89
2023/07/10 10:38:54;;;;;;;8.32;2.00;;;24.40;99.90;;;;;;5031888;28;20113;-90
2023/07/10 10:42:00;;;;;;;4.82;1.50;;;23.30;99.90;;;;;;5047781;28;20129;-85
2023/07/10 10:44:43;;;;;;;4.88;1.33;;;24.80;99.90;;;;;;5030835;28;20112;-86
2023/07/10 10:47:34;;;;;;;6.95;1.60;;;25.00;99.90;;;;;;5048396;28;20082;-87
2023/07/10 10:50:26;;;;;;;5.10;1.35;;;25.20;99.90;;;;;;5048455;28;20452;-90
2023/07/10 10:53:24;;;;;;;9.15;1.60;;;25.30;99.90;;;;;;5066252;28;20052;-88
2023/07/10 10:56:24;;;;;;;7.70;1.63;;;25.20;99.90;;;;;;5044673;28;20049;-90
2023/07/10 10:59:07;;;;;;;7.45;1.30;;;25.30;99.90;;;;;;5031809;28;20135;-86
2023/07/10 11:01:45;;;;;;;;;;;25.30;99.90;;;;;;5030888;28;20093;-86
2023/07/10 11:04:31;;;;;;;3.50;1.08;;;25.40;99.90;;;;;;5048084;28;19924;-85
2023/07/10 11:07:22;;;;;;;7.65;1.05;;;25.60;99.90;;;;;;5047856;28;20075;-86
2023/07/10 11:09:59;;;;;;;5.45;1.40;;;25.60;99.90;;;;;;5064780;28;20056;-84
2023/07/10 11:12:29;;;;;;;6.60;1.58;;;25.60;99.90;;;;;;5048369;28;20049;-83
2023/07/10 11:15:03;;;;;;;7.32;1.33;;;25.80;99.90;;;;;;5046581;28;20044;-85
2023/07/10 11:17:29;;;;;;;7.35;1.30;;;26.00;99.30;;;;;;5031050;28;20041;-85
2023/07/10 11:19:55;;;;;;;5.47;1.20;;;26.10;99.50;;;;;;5030371;28;20063;-85
2023/07/10 11:22:24;;;;;;;5.40;0.90;;;26.20;99.20;;;;;;5047321;28;20048;-85
2023/07/10 11:24:53;;;;;;;9.80;1.80;;;26.30;99.10;;;;;;5030567;28;20295;-86
2023/07/10 11:27:27;;;;;;;5.05;1.48;;;26.50;98.90;;;;;;5046268;28;20052;-85
2023/07/10 11:29:56;;;;;;;5.05;1.10;;;26.40;98.50;;;;;;5030803;28;20490;-86
2023/07/10 11:32:26;;;;;;;4.85;1.52;;;26.30;98.70;;;;;;5064544;28;20052;-85
2023/07/10 11:35:10;;;;;;;5.75;1.05;;;26.10;98.30;;;;;;5046741;28;20092;-85
2023/07/10 11:37:49;;;;;;;5.28;1.15;;;26.00;98.50;;;;;;5047332;28;20399;-85
2023/07/10 11:40:27;;;;;;;4.20;1.00;;;25.90;98.30;;;;;;5030149;28;20399;-86
2023/07/10 11:42:54;;;;;;;4.45;1.23;;;26.00;97.30;;;;;;5047614;28;20495;-85
2023/07/10 11:45:36;;;;;;;8.18;1.42;;;26.20;97.60;;;;;;5030047;28;20055;-85
2023/07/10 11:48:02;;;;;;;3.75;0.95;;;26.40;97.00;;;;;;5030230;28;20144;-86
2023/07/10 11:50:29;;;;;;;6.70;1.40;;;26.70;96.80;;;;;;5046938;28;20044;-86
2023/07/10 11:53:22;;;;;;;4.22;0.98;;;26.70;95.70;;;;;;5045904;28;20044;-86
2023/07/10 11:55:54;;;;;;;4.13;1.00;;;26.60;94.70;;;;;;5048115;28;20052;-85
2023/07/10 11:58:29;;;;;;;7.57;1.23;;;26.70;94.30;;;;;;5047582;28;20052;-85
2023/07/10 12:01:11;;;;;;;6.03;1.05;;;26.70;94.50;;;;;;5053652;28;20044;-85
2023/07/10 12:03:37;;;;;;;;;;;26.80;92.90;;;;;;5059405;28;20051;-87
2023/07/10 12:06:13;;;;;;;4.82;1.15;;;26.90;92.30;;;;;;5057588;28;19971;-86
2023/07/10 12:08:39;;;;;;;5.15;1.25;;;27.10;94.40;;;;;;5058111;28;20048;-85
2023/07/10 12:11:05;;;;;;;5.50;1.42;;;28.10;94.20;;;;;;5039322;28;20036;-85
2023/07/10 12:13:31;;;;;;;4.50;1.40;;;27.20;94.00;;;;;;5035909;28;20044;-86
2023/07/10 12:16:05;;;;;;;3.30;0.85;;;27.10;94.70;;;;;;5032187;28;20044;-85
2023/07/10 12:18:38;;;;;;;2.40;0.57;;;26.80;95.20;;;;;;5047398;28;20570;-85
2023/07/10 12:21:14;;;;;;;3.85;1.10;;;26.60;95.60;;;;;;5048657;28;20085;-85
2023/07/10 12:23:52;;;;;;;7.13;0.85;;;26.30;96.10;;;;;;5048004;28;20774;-87
2023/07/10 12:26:18;;;;;;;4.95;0.85;;;26.10;95.90;;;;;;5049910;28;20045;-86
2023/07/10 12:28:43;;;;;;;7.05;1.02;;;24.40;96.00;;;;;;5048796;28;20483;-85
2023/07/10 12:31:14;;;;;;;4.00;1.08;;;25.90;96.70;;;;;;5048602;28;20135;-86
2023/07/10 12:33:47;;;;;;;2.22;0.70;;;25.80;96.30;;;;;;5033275;28;20044;-87
2023/07/10 12:36:19;;;;;;;4.75;0.98;;;25.70;95.50;;;;;;5030215;28;20139;-86
2023/07/10 12:38:45;;;;;;;5.40;1.00;;;25.60;95.70;;;;;;5049976;28;20092;-86
2023/07/10 12:41:10;;;;;;;3.85;1.00;;;25.70;96.00;;;;;;5046911;28;20063;-86
2023/07/10 12:43:36;;;;;;;4.43;1.08;;;25.80;95.80;;;;;;5029937;28;20123;-86
2023/07/10 12:46:13;;;;;;;7.82;1.35;;;25.80;95.60;;;;;;5031650;28;20033;-87
2023/07/10 12:48:40;;;;;;;5.15;1.35;;;25.80;95.60;;;;;;5033043;28;20132;-86
2023/07/10 12:51:07;;;;;;;2.83;0.80;;;25.60;95.70;;;;;;5038603;28;20135;-87
2023/07/10 12:53:37;;;;;;;5.68;1.08;;;25.50;95.80;;;;;;5054259;28;20045;-85
2023/07/10 12:56:28;;;;;;;4.35;1.27;;;25.50;96.00;;;;;;5058087;28;20051;-87
2023/07/10 12:58:58;;;;;;;4.30;1.00;;;25.60;95.30;;;;;;5035188;28;20032;-86